EDAC

Altenburg-Nobitz Airport

Altenburg, Germany
METAR EDAC 231350Z 05011KT 020V090 CAVOK M02/M10 Q1023
Observed Flight Rules
Feb-23 @ 13:50 UTC (34 minutes ago) Visual Flight Rules
Wind Visibility Clouds
50° at 11 knots 10,000+ meters
  • Clear skies
Temperatures Readings
Current -2°C / 28°F
Dewpoint -10°C / 14°F
Humidity 55%
Altimeter 30.21" Hg
Pressure 1023 hPa
Elevation 195
METAR EDAC 231350Z 05011KT 020V090 CAVOK M02/M10 Q1023
Observed Flight Rules
Feb-23 @ 13:50 UTC
(34 minutes ago)
VFR
Wind Visibility
50° at 11 knots 10,000+ meters
Clouds
  • Clear skies
Temperature Dewpoint
-2°C / 28°F -10°C / 14°F
Humidity Altimeter Pressure
55% 30.21" Hg 1023 hPa